createdAt,value
2022-08-03T00:00:24.265Z,9.10
2022-08-03T00:02:51.468Z,3.78
2022-08-03T00:05:17.969Z,7.72
2022-08-03T00:07:44.463Z,2.42
2022-08-03T00:10:11.187Z,6.28
2022-08-03T00:12:37.639Z,4.13
2022-08-03T00:15:04.650Z,5.40
2022-08-03T00:17:53.029Z,6.57
2022-08-03T00:20:23.459Z,4.55
2022-08-03T00:22:51.401Z,6.13
2022-08-03T00:25:18.057Z,3.33
2022-08-03T00:27:44.510Z,8.57
2022-08-03T00:30:11.690Z,3.83
2022-08-03T00:32:38.748Z,10.45
2022-08-03T00:35:18.244Z,5.43
2022-08-03T00:37:58.799Z,7.93
2022-08-03T00:40:25.453Z,3.75
2022-08-03T00:42:59.952Z,3.10
2022-08-03T00:45:28.763Z,6.80
2022-08-03T00:47:56.305Z,2.00
2022-08-03T00:50:24.791Z,4.47
2022-08-03T00:52:56.587Z,6.00
2022-08-03T00:55:24.001Z,4.90
2022-08-03T00:57:51.283Z,4.18
2022-08-03T01:00:24.061Z,6.72
2022-08-03T01:02:51.620Z,10.50
2022-08-03T01:05:19.132Z,9.15
2022-08-03T01:08:06.572Z,9.60
2022-08-03T01:10:49.667Z,3.05
2022-08-03T01:14:01.262Z,6.72
2022-08-03T01:16:37.528Z,3.13
2022-08-03T01:19:35.373Z,7.00
2022-08-03T01:22:18.079Z,5.35
2022-08-03T01:24:57.781Z,6.85
2022-08-03T01:27:45.767Z,3.30
2022-08-03T01:30:12.547Z,7.38
2022-08-03T01:33:03.942Z,7.90
2022-08-03T01:35:39.262Z,3.47
2022-08-03T01:38:11.440Z,5.38
2022-08-03T01:40:40.892Z,4.40
2022-08-03T01:43:11.037Z,5.18
2022-08-03T01:45:38.580Z,6.40
2022-08-03T01:48:07.328Z,6.18
2022-08-03T01:50:34.922Z,10.30
2022-08-03T01:53:02.406Z,5.53
2022-08-03T01:55:32.029Z,10.25
2022-08-03T01:58:04.588Z,8.85
2022-08-03T02:00:33.370Z,4.38
2022-08-03T02:03:02.018Z,18.17
2022-08-03T02:05:30.752Z,4.57
2022-08-03T02:07:58.517Z,10.13
2022-08-03T02:10:34.323Z,4.85
2022-08-03T02:13:05.187Z,4.45
2022-08-03T02:15:33.405Z,10.52
2022-08-03T02:18:02.130Z,4.55
2022-08-03T02:20:29.621Z,8.85
2022-08-03T02:22:56.074Z,10.25
2022-08-03T02:25:22.601Z,10.50
2022-08-03T02:27:55.098Z,5.53
2022-08-03T02:30:23.544Z,7.05
2022-08-03T02:32:57.788Z,12.75
2022-08-03T02:35:28.283Z,5.10
2022-08-03T02:37:59.618Z,5.05
2022-08-03T02:40:28.565Z,6.45
2022-08-03T02:43:02.586Z,9.80
2022-08-03T02:45:29.844Z,7.45
2022-08-03T02:48:01.810Z,9.63
2022-08-03T02:50:30.697Z,8.90
2022-08-03T02:52:59.608Z,6.75
2022-08-03T02:55:28.356Z,6.78
2022-08-03T02:57:56.852Z,8.23
2022-08-03T03:00:28.703Z,11.48
2022-08-03T03:03:00.785Z,9.35
2022-08-03T03:05:56.432Z,25.70
2022-08-03T03:08:20.635Z,7.32
2022-08-03T03:10:55.745Z,4.43
2022-08-03T03:13:23.104Z,12.25
2022-08-03T03:15:50.852Z,10.23
2022-08-03T03:18:22.375Z,5.32
2022-08-03T03:20:51.499Z,6.07
2022-08-03T03:23:18.203Z,9.40
2022-08-03T03:25:45.400Z,12.40
2022-08-03T03:28:12.216Z,12.20
2022-08-03T03:30:38.756Z,11.20
2022-08-03T03:33:05.294Z,12.00
2022-08-03T03:35:38.725Z,5.85
2022-08-03T03:38:06.724Z,6.03
2022-08-03T03:40:35.477Z,8.80
2022-08-03T03:43:02.387Z,17.08
2022-08-03T03:45:31.011Z,9.35
2022-08-03T03:48:05.321Z,8.63
2022-08-03T03:50:33.783Z,12.73
2022-08-03T03:53:01.088Z,11.32
2022-08-03T03:55:27.571Z,5.00
2022-08-03T03:57:54.704Z,11.57
2022-08-03T04:00:21.445Z,8.77
2022-08-03T04:02:48.043Z,7.03
2022-08-03T04:05:34.152Z,8.60
2022-08-03T04:08:25.704Z,9.52
2022-08-03T04:11:02.821Z,5.45
2022-08-03T04:13:39.784Z,11.50
2022-08-03T04:16:10.576Z,11.95
2022-08-03T04:18:40.745Z,14.23
2022-08-03T04:21:10.485Z,5.78
2022-08-03T04:23:41.418Z,9.90
2022-08-03T04:26:11.962Z,10.38
2022-08-03T04:28:40.856Z,10.82
2022-08-03T04:31:08.222Z,6.05
2022-08-03T04:33:37.077Z,13.98
2022-08-03T04:36:07.792Z,8.07
2022-08-03T04:38:44.000Z,12.40
2022-08-03T04:41:11.532Z,9.23
2022-08-03T04:43:40.672Z,7.60
2022-08-03T04:46:08.173Z,14.98
2022-08-03T04:48:35.081Z,11.20
2022-08-03T04:51:04.285Z,13.70
2022-08-03T04:53:31.202Z,16.58
2022-08-03T04:56:05.577Z,5.57
2022-08-03T04:58:32.224Z,12.43
2022-08-03T05:00:59.280Z,16.67
2022-08-03T05:03:25.730Z,11.35
2022-08-03T05:06:01.802Z,12.23
2022-08-03T05:08:36.059Z,12.13
2022-08-03T05:11:13.045Z,12.40
2022-08-03T05:13:42.979Z,10.65
2022-08-03T05:16:15.209Z,8.55
2022-08-03T05:18:42.876Z,7.65
2022-08-03T05:21:10.593Z,12.32
2022-08-03T05:23:37.869Z,18.80
2022-08-03T05:26:04.529Z,13.45
2022-08-03T05:28:31.011Z,12.30
2022-08-03T05:30:57.459Z,18.88
2022-08-03T05:33:23.885Z,11.07
2022-08-03T05:36:01.565Z,12.55
2022-08-03T05:38:35.014Z,9.27
2022-08-03T05:43:49.188Z,19.02
2022-08-03T05:46:15.985Z,14.48
2022-08-03T05:48:42.910Z,23.55
2022-08-03T05:51:11.546Z,13.15
2022-08-03T05:53:39.810Z,14.00
2022-08-03T05:56:14.443Z,14.88
2022-08-03T05:58:48.480Z,18.13
2022-08-03T06:01:16.833Z,14.43
2022-08-03T06:03:43.638Z,8.73
2022-08-03T06:06:11.342Z,11.88
2022-08-03T06:08:38.277Z,10.73
2022-08-03T06:11:04.830Z,9.57
2022-08-03T06:13:32.127Z,14.70
2022-08-03T06:15:58.543Z,13.52
2022-08-03T06:18:25.041Z,15.70
2022-08-03T06:20:52.556Z,12.73
2022-08-03T06:23:19.333Z,12.70
2022-08-03T06:25:46.724Z,9.32
2022-08-03T06:28:51.893Z,20.02
2022-08-03T06:31:06.510Z,18.42
2022-08-03T06:33:48.557Z,10.60
2022-08-03T06:36:20.445Z,14.70
2022-08-03T06:38:46.907Z,17.05
2022-08-03T06:41:13.459Z,15.10
2022-08-03T06:44:03.733Z,8.75
2022-08-03T06:46:27.059Z,14.43
2022-08-03T06:48:53.741Z,20.48
2022-08-03T06:51:20.354Z,14.10
2022-08-03T06:53:46.803Z,9.35
2022-08-03T06:56:13.254Z,15.70
2022-08-03T06:58:39.725Z,18.73
2022-08-03T07:01:06.235Z,12.98
2022-08-03T07:03:32.700Z,13.35
2022-08-03T07:05:59.608Z,14.63
2022-08-03T07:08:33.631Z,8.68
2022-08-03T07:11:01.329Z,12.10
2022-08-03T07:13:27.783Z,16.08
2022-08-03T07:15:56.387Z,14.77
2022-08-03T07:18:28.368Z,21.38
2022-08-03T07:20:57.915Z,16.75
2022-08-03T07:23:25.573Z,12.73
2022-08-03T07:25:52.322Z,11.55
2022-08-03T07:28:18.941Z,13.27
2022-08-03T07:30:45.373Z,13.13
2022-08-03T07:33:12.001Z,9.63
2022-08-03T07:35:39.240Z,20.75
2022-08-03T07:38:05.786Z,15.48
2022-08-03T07:40:32.420Z,11.65
2022-08-03T07:42:59.741Z,15.18
2022-08-03T07:45:26.610Z,14.98
2022-08-03T07:47:54.205Z,15.43
2022-08-03T07:50:23.230Z,15.98
2022-08-03T07:52:52.796Z,12.70
2022-08-03T07:55:21.950Z,12.15
2022-08-03T07:57:59.881Z,14.18
2022-08-03T08:00:26.342Z,21.27
2022-08-03T08:02:52.860Z,13.48
2022-08-03T08:05:19.438Z,17.58
2022-08-03T08:07:51.646Z,13.32
2022-08-03T08:10:19.192Z,11.63
2022-08-03T08:12:45.744Z,14.75
2022-08-03T08:15:12.223Z,11.82
2022-08-03T08:17:53.458Z,14.15
2022-08-03T08:23:09.642Z,13.85
2022-08-03T08:25:52.730Z,11.80
2022-08-03T08:28:29.830Z,21.30
2022-08-03T08:30:59.047Z,23.27
2022-08-03T08:33:25.878Z,15.57
2022-08-03T08:35:53.436Z,16.33
2022-08-03T08:38:20.327Z,18.70
2022-08-03T08:40:48.664Z,17.98
2022-08-03T08:43:15.165Z,17.25
2022-08-03T08:45:42.404Z,13.98
2022-08-03T08:48:10.778Z,17.63
2022-08-03T08:50:38.674Z,19.83
2022-08-03T08:53:09.670Z,20.13
2022-08-03T08:55:59.614Z,18.25
2022-08-03T08:58:28.526Z,28.10
2022-08-03T09:00:55.495Z,24.20
2022-08-03T09:03:29.137Z,19.33
2022-08-03T09:05:59.518Z,16.50
2022-08-03T09:08:26.296Z,16.83
2022-08-03T09:10:52.902Z,17.88
2022-08-03T09:13:19.334Z,19.00
2022-08-03T09:15:59.827Z,15.85
2022-08-03T09:18:32.827Z,19.80
2022-08-03T09:21:35.367Z,26.95
2022-08-03T09:24:05.813Z,21.15
2022-08-03T09:26:37.896Z,23.80
2022-08-03T09:29:14.326Z,18.92
2022-08-03T09:31:46.551Z,19.77
2022-08-03T09:34:15.915Z,15.77
2022-08-03T09:36:50.481Z,18.95
2022-08-03T09:39:19.327Z,20.02
2022-08-03T09:41:48.367Z,18.15
2022-08-03T09:44:24.488Z,18.30
2022-08-03T09:46:56.541Z,14.25
2022-08-03T09:49:24.379Z,11.48
2022-08-03T09:52:31.805Z,32.58
2022-08-03T09:54:38.250Z,14.95
2022-08-03T09:57:04.981Z,18.08
2022-08-03T09:59:33.323Z,19.55
2022-08-03T10:02:00.421Z,20.83
2022-08-03T10:04:27.780Z,10.50
2022-08-03T10:07:09.179Z,19.80
2022-08-03T10:09:36.543Z,15.77
2022-08-03T10:12:13.667Z,17.48
2022-08-03T10:14:45.264Z,14.40
2022-08-03T10:17:11.861Z,18.05
2022-08-03T10:19:38.719Z,20.70
2022-08-03T10:22:14.753Z,12.50
2022-08-03T10:24:49.596Z,23.30
2022-08-03T10:27:17.620Z,14.70
2022-08-03T10:29:50.473Z,27.98
2022-08-03T10:32:30.374Z,12.05
2022-08-03T10:35:20.827Z,16.58
2022-08-03T10:37:59.814Z,16.52
2022-08-03T10:40:48.241Z,15.13
2022-08-03T10:43:39.112Z,14.93
2022-08-03T10:46:08.428Z,15.90
2022-08-03T10:48:36.709Z,14.23
2022-08-03T10:51:04.737Z,17.55
2022-08-03T10:53:37.132Z,7.35
2022-08-03T10:56:41.600Z,17.88
2022-08-03T10:59:10.576Z,11.38
2022-08-03T11:01:58.589Z,14.20
2022-08-03T11:04:29.182Z,11.48
2022-08-03T11:07:17.719Z,15.55
2022-08-03T11:09:47.528Z,12.57
2022-08-03T11:12:31.363Z,10.95
2022-08-03T11:15:32.472Z,14.13
2022-08-03T11:18:27.046Z,14.02
2022-08-03T11:20:58.888Z,11.80
2022-08-03T11:24:05.275Z,6.93
2022-08-03T11:26:33.629Z,13.70
2022-08-03T11:29:29.179Z,10.52
2022-08-03T11:31:55.964Z,8.27
2022-08-03T11:34:22.506Z,12.57
2022-08-03T11:37:22.140Z,20.25
2022-08-03T11:39:51.630Z,17.13
2022-08-03T11:42:24.136Z,12.38
2022-08-03T11:44:51.730Z,14.63
2022-08-03T11:47:20.525Z,13.93
2022-08-03T11:49:48.805Z,9.27
2022-08-03T11:52:17.558Z,12.55
2022-08-03T11:54:44.478Z,15.07
2022-08-03T11:57:11.415Z,9.90
2022-08-03T11:59:38.812Z,12.52
2022-08-03T12:02:12.325Z,13.20
2022-08-03T12:04:58.309Z,10.30
2022-08-03T12:08:03.689Z,14.48
2022-08-03T12:10:15.110Z,8.10
2022-08-03T12:12:46.442Z,10.20
2022-08-03T12:15:13.637Z,8.98
2022-08-03T12:17:41.367Z,10.65
2022-08-03T12:20:10.230Z,9.73
2022-08-03T12:22:39.800Z,7.95
2022-08-03T12:25:20.198Z,10.20
2022-08-03T12:28:37.021Z,14.20
2022-08-03T12:31:07.448Z,14.60
2022-08-03T12:33:59.818Z,13.55
2022-08-03T12:36:28.381Z,8.90
2022-08-03T12:38:57.788Z,10.13
2022-08-03T12:41:38.272Z,6.32
2022-08-03T12:44:07.380Z,10.15
2022-08-03T12:46:40.040Z,7.20
2022-08-03T12:49:15.379Z,9.70
2022-08-03T12:51:41.932Z,10.82
2022-08-03T12:54:09.220Z,13.30
2022-08-03T12:56:35.956Z,8.10
2022-08-03T12:59:32.500Z,5.15
2022-08-03T13:02:04.527Z,6.47
2022-08-03T13:04:36.372Z,6.13
2022-08-03T13:07:04.608Z,9.98
2022-08-03T13:09:45.420Z,7.60
2022-08-03T13:12:21.040Z,9.50
2022-08-03T13:14:50.862Z,3.00
2022-08-03T13:17:18.266Z,5.28
2022-08-03T13:19:45.870Z,4.60
2022-08-03T13:22:17.695Z,4.38
2022-08-03T13:24:46.096Z,8.85
2022-08-03T13:28:01.958Z,11.90
2022-08-03T13:29:59.609Z,4.22
2022-08-03T13:32:26.255Z,4.40
2022-08-03T13:34:52.910Z,6.30
2022-08-03T13:37:19.376Z,3.25
2022-08-03T13:39:57.630Z,4.13
2022-08-03T13:42:27.065Z,5.55
2022-08-03T13:44:53.620Z,6.95
2022-08-03T13:47:20.904Z,7.80
2022-08-03T13:49:54.297Z,5.53
2022-08-03T13:52:33.194Z,6.05
2022-08-03T13:55:00.236Z,5.00
2022-08-03T13:58:05.684Z,3.25
2022-08-03T14:00:26.285Z,5.03
2022-08-03T14:03:13.799Z,7.60
2022-08-03T14:05:42.364Z,5.47
2022-08-03T14:08:09.518Z,4.85
2022-08-03T14:10:38.744Z,3.58
2022-08-03T14:13:05.947Z,7.13
2022-08-03T14:15:38.222Z,10.20
2022-08-03T14:18:15.236Z,6.22
2022-08-03T14:20:49.958Z,5.07
2022-08-03T14:23:18.973Z,6.13
2022-08-03T14:25:52.100Z,5.28
2022-08-03T14:28:23.577Z,5.47
2022-08-03T14:33:17.715Z,4.22
2022-08-03T14:35:44.208Z,10.60
2022-08-03T14:38:10.726Z,8.27
2022-08-03T14:40:37.539Z,8.68
2022-08-03T14:43:04.480Z,6.68
2022-08-03T14:45:31.063Z,10.98
2022-08-03T14:50:30.564Z,6.43
2022-08-03T14:50:51.093Z,8.77
2022-08-03T14:53:18.542Z,4.53
2022-08-03T14:55:50.419Z,3.80
2022-08-03T14:58:22.492Z,3.05
2022-08-03T15:00:50.917Z,4.53
2022-08-03T15:03:21.525Z,5.88
2022-08-03T15:05:48.101Z,2.38
2022-08-03T15:08:14.721Z,5.82
2022-08-03T15:10:44.784Z,1.88
2022-08-03T15:13:15.042Z,3.08
2022-08-03T15:15:41.713Z,4.32
2022-08-03T15:18:08.889Z,5.45
2022-08-03T15:20:51.068Z,5.38
2022-08-03T15:23:18.277Z,9.20
2022-08-03T15:26:28.905Z,2.40
2022-08-03T15:28:32.646Z,3.88
2022-08-03T15:31:00.437Z,7.53
2022-08-03T15:33:27.076Z,7.95
2022-08-03T15:35:53.998Z,4.40
2022-08-03T15:38:26.098Z,6.18
2022-08-03T15:40:54.487Z,4.90
2022-08-03T15:43:24.319Z,5.53
2022-08-03T15:46:19.198Z,13.57
2022-08-03T15:48:38.146Z,4.72
2022-08-03T15:51:05.277Z,9.00
2022-08-03T15:53:32.058Z,2.53
2022-08-03T15:55:58.776Z,8.98
2022-08-03T15:59:10.875Z,2.45
2022-08-03T16:01:19.688Z,10.05
2022-08-03T16:03:46.967Z,5.55
2022-08-03T16:06:13.842Z,8.73
2022-08-03T16:08:40.351Z,8.55
2022-08-03T16:11:06.847Z,3.03
2022-08-03T16:14:13.375Z,5.90
2022-08-03T16:16:19.851Z,4.18
2022-08-03T16:18:46.338Z,7.07
2022-08-03T16:21:14.800Z,6.10
2022-08-03T16:23:47.418Z,9.07
2022-08-03T16:26:14.141Z,16.48
2022-08-03T16:28:40.899Z,11.40
2022-08-03T16:31:08.940Z,4.55
2022-08-03T16:33:35.864Z,9.23
2022-08-03T16:36:02.563Z,18.67
2022-08-03T16:38:29.625Z,10.50
2022-08-03T16:40:56.061Z,14.25
2022-08-03T16:43:22.816Z,7.55
2022-08-03T16:45:49.566Z,6.07
2022-08-03T16:48:16.828Z,4.53
2022-08-03T16:50:44.301Z,7.88
2022-08-03T16:53:15.708Z,10.48
2022-08-03T16:55:51.926Z,6.82
2022-08-03T16:58:41.387Z,2.67
2022-08-03T17:01:21.687Z,6.07
2022-08-03T17:04:03.195Z,4.45
2022-08-03T17:06:35.326Z,6.00
2022-08-03T17:09:13.720Z,5.60
2022-08-03T17:11:47.280Z,9.68
2022-08-03T17:14:16.454Z,6.13
2022-08-03T17:16:52.284Z,6.80
2022-08-03T17:19:24.866Z,6.85
2022-08-03T17:21:59.280Z,17.85
2022-08-03T17:24:32.306Z,21.80
2022-08-03T17:27:04.113Z,4.28
2022-08-03T17:29:45.325Z,8.02
2022-08-03T17:32:17.930Z,4.80
2022-08-03T17:34:46.520Z,4.60
2022-08-03T17:37:27.208Z,3.10
2022-08-03T17:40:00.694Z,3.83
2022-08-03T17:42:33.199Z,2.80
2022-08-03T17:47:42.104Z,2.97
2022-08-03T17:50:25.328Z,7.63
2022-08-03T17:53:07.263Z,8.90
2022-08-03T17:58:53.451Z,5.65
2022-08-03T18:01:57.805Z,5.90
2022-08-03T18:04:33.498Z,6.40
2022-08-03T18:07:11.389Z,6.00
2022-08-03T18:10:06.197Z,5.90
2022-08-03T18:12:40.180Z,2.72
2022-08-03T18:15:21.136Z,3.20
2022-08-03T18:17:55.236Z,10.60
2022-08-03T18:20:33.004Z,5.30
2022-08-03T18:23:09.131Z,7.75
2022-08-03T18:25:44.949Z,3.78
2022-08-03T18:28:18.703Z,7.82
2022-08-03T18:31:06.130Z,3.97
2022-08-03T18:34:16.630Z,6.68
2022-08-03T18:36:30.071Z,3.13
2022-08-03T18:38:59.230Z,5.00
2022-08-03T18:41:32.224Z,5.50
2022-08-03T18:44:37.769Z,7.63
2022-08-03T18:47:07.541Z,5.63
2022-08-03T18:50:20.641Z,8.23
2022-08-03T18:52:55.439Z,2.90
2022-08-03T18:56:01.613Z,3.85
2022-08-03T18:58:34.311Z,5.55
2022-08-03T19:01:58.128Z,6.68
2022-08-03T19:04:11.795Z,6.05
2022-08-03T19:06:48.122Z,5.43
2022-08-03T19:09:28.085Z,4.35
2022-08-03T19:12:14.416Z,7.95
2022-08-03T19:14:56.148Z,2.60
2022-08-03T19:17:29.430Z,5.57
2022-08-03T19:20:01.570Z,5.10
2022-08-03T19:22:32.062Z,8.48
2022-08-03T19:25:00.835Z,4.43
2022-08-03T19:27:29.435Z,5.95
2022-08-03T19:30:05.008Z,6.63
2022-08-03T19:32:35.292Z,6.93
2022-08-03T19:35:03.692Z,7.72
2022-08-03T19:37:38.722Z,5.05
2022-08-03T19:40:10.978Z,6.00
2022-08-03T19:42:44.484Z,2.45
2022-08-03T19:45:15.571Z,8.57
2022-08-03T19:47:47.372Z,8.80
2022-08-03T19:50:18.916Z,5.65
2022-08-03T19:52:48.220Z,4.03
2022-08-03T19:55:16.654Z,5.30
2022-08-03T19:57:46.141Z,6.90
2022-08-03T20:00:26.120Z,8.02
2022-08-03T20:02:53.707Z,6.35
2022-08-03T20:05:20.508Z,4.30
2022-08-03T20:07:50.120Z,7.00
2022-08-03T20:10:20.648Z,2.53
2022-08-03T20:12:48.677Z,4.97
2022-08-03T20:15:22.218Z,3.95
2022-08-03T20:17:58.622Z,6.88
2022-08-03T20:20:30.881Z,3.05
2022-08-03T20:22:59.470Z,1.92
2022-08-03T20:25:58.127Z,5.25
2022-08-03T20:28:50.302Z,2.30
2022-08-03T20:31:19.246Z,3.35
2022-08-03T20:36:34.804Z,4.28
2022-08-03T20:39:02.092Z,3.28
2022-08-03T20:41:34.657Z,4.60
2022-08-03T20:44:01.719Z,5.32
2022-08-03T20:46:28.152Z,5.35
2022-08-03T20:49:01.179Z,6.10
2022-08-03T20:51:49.910Z,4.13
2022-08-03T20:54:28.596Z,3.90
2022-08-03T20:56:58.623Z,7.25
2022-08-03T20:59:33.646Z,2.55
2022-08-03T21:02:05.397Z,6.97
2022-08-03T21:04:31.864Z,6.78
2022-08-03T21:07:02.563Z,2.08
2022-08-03T21:09:49.682Z,6.10
2022-08-03T21:12:27.114Z,3.90
2022-08-03T21:13:05.447Z,3.65
2022-08-03T21:13:12.545Z,7.40
2022-08-03T21:15:07.963Z,3.45
2022-08-03T21:17:41.870Z,2.63
2022-08-03T21:20:10.699Z,6.45
2022-08-03T21:22:39.521Z,5.47
2022-08-03T21:25:09.201Z,2.75
2022-08-03T21:27:37.095Z,3.22
2022-08-03T21:30:09.146Z,4.88
2022-08-03T21:32:36.362Z,5.28
2022-08-03T21:35:06.902Z,4.13
2022-08-03T21:37:33.532Z,5.77
2022-08-03T21:40:00.637Z,5.45
2022-08-03T21:42:27.189Z,3.30
2022-08-03T21:44:54.251Z,4.22
2022-08-03T21:47:22.704Z,4.53
2022-08-03T21:50:07.378Z,4.53
2022-08-03T21:52:40.932Z,4.75
2022-08-03T21:55:07.854Z,5.65
2022-08-03T21:57:37.617Z,6.68
2022-08-03T22:00:08.661Z,4.83
2022-08-03T22:02:42.966Z,6.82
2022-08-03T22:05:09.712Z,7.50
2022-08-03T22:07:42.999Z,5.00
2022-08-03T22:10:10.853Z,2.60
2022-08-03T22:12:38.041Z,4.90
2022-08-03T22:15:07.822Z,8.23
2022-08-03T22:17:55.622Z,3.13
2022-08-03T22:20:24.022Z,10.15
2022-08-03T22:22:56.068Z,5.90
2022-08-03T22:25:27.279Z,5.05
2022-08-03T22:27:54.573Z,6.05
2022-08-03T22:30:21.456Z,3.70
2022-08-03T22:32:52.716Z,5.75
2022-08-03T22:35:21.037Z,7.05
2022-08-03T22:37:49.501Z,2.67
2022-08-03T22:40:16.752Z,6.00
2022-08-03T22:42:45.874Z,3.70
2022-08-03T22:45:12.588Z,6.20
2022-08-03T22:47:59.780Z,3.50
2022-08-03T22:50:31.467Z,5.82
2022-08-03T22:53:00.530Z,5.28
2022-08-03T22:55:27.560Z,11.13
2022-08-03T22:57:56.074Z,7.43
2022-08-03T23:00:23.371Z,4.97
2022-08-03T23:02:51.436Z,4.50
2022-08-03T23:06:00.574Z,4.70
2022-08-03T23:08:20.457Z,2.45
2022-08-03T23:10:47.920Z,3.00
2022-08-03T23:13:17.118Z,4.78
2022-08-03T23:15:51.477Z,3.00
2022-08-03T23:18:20.788Z,4.00
2022-08-03T23:20:51.546Z,8.50
2022-08-03T23:23:20.637Z,3.63
2022-08-03T23:25:49.752Z,2.88
2022-08-03T23:28:17.015Z,2.97
2022-08-03T23:30:49.716Z,7.40
2022-08-03T23:33:17.906Z,4.80
2022-08-03T23:36:20.135Z,3.92
2022-08-03T23:38:44.239Z,7.63
2022-08-03T23:41:12.480Z,4.05
2022-08-03T23:43:52.263Z,5.82
2022-08-03T23:46:21.960Z,3.50
2022-08-03T23:48:48.530Z,3.50
2022-08-03T23:51:57.011Z,3.95
2022-08-03T23:54:51.369Z,6.22
2022-08-03T23:57:32.649Z,5.78
